createdAt,value
2022-10-11T00:01:17.503Z,99140.16
2022-10-11T00:03:43.966Z,99137.81
2022-10-11T00:06:10.549Z,99142.91
2022-10-11T00:08:36.937Z,99149.31
2022-10-11T00:11:07.054Z,99150.06
2022-10-11T00:13:34.497Z,99159.69
2022-10-11T00:16:01.582Z,99151.59
2022-10-11T00:18:28.219Z,99155.91
2022-10-11T00:21:04.885Z,99171.59
2022-10-11T00:23:31.583Z,99164.03
2022-10-11T00:25:59.987Z,99158.19
2022-10-11T00:28:26.907Z,99157.94
2022-10-11T00:30:53.757Z,99156.75
2022-10-11T00:33:20.411Z,99164.38
2022-10-11T00:35:46.772Z,99162.81
2022-10-11T00:38:13.198Z,99161.78
2022-10-11T00:40:40.027Z,99159.75
2022-10-11T00:43:18.850Z,99159.56
2022-10-11T00:45:57.394Z,99163.75
2022-10-11T00:48:39.060Z,99156.50
2022-10-11T00:51:33.269Z,99162.19
2022-10-11T00:54:01.773Z,99156.78
2022-10-11T00:56:34.109Z,99161.53
2022-10-11T00:59:04.344Z,99160.22
2022-10-11T01:01:31.045Z,99155.19
2022-10-11T01:03:57.894Z,99158.25
2022-10-11T01:06:24.653Z,99156.97
2022-10-11T01:08:52.157Z,99159.66
2022-10-11T01:11:23.176Z,99151.56
2022-10-11T01:14:27.370Z,99153.97
2022-10-11T01:17:00.714Z,99159.81
2022-10-11T01:19:45.813Z,99159.00
2022-10-11T01:22:38.564Z,99155.81
2022-10-11T01:25:50.181Z,99151.34
2022-10-11T01:28:53.696Z,99152.53
2022-10-11T01:31:28.714Z,99151.72
2022-10-11T01:34:04.057Z,99151.72
2022-10-11T01:36:38.454Z,99158.28
2022-10-11T01:39:31.416Z,99152.66
2022-10-11T01:42:03.481Z,99152.47
2022-10-11T01:44:30.768Z,99143.94
2022-10-11T01:46:57.162Z,99149.13
2022-10-11T01:49:23.829Z,99142.63
2022-10-11T01:51:54.325Z,99147.81
2022-10-11T01:55:08.228Z,99144.94
2022-10-11T01:57:45.769Z,99144.59
2022-10-11T02:00:23.195Z,99138.91
2022-10-11T02:03:31.972Z,99143.28
2022-10-11T02:06:01.423Z,99148.47
2022-10-11T02:08:43.582Z,99139.56
2022-10-11T02:11:26.299Z,99139.84
2022-10-11T02:14:20.477Z,99145.13
2022-10-11T02:16:55.328Z,99140.28
2022-10-11T02:19:26.233Z,99141.13
2022-10-11T02:21:57.640Z,99141.41
2022-10-11T02:24:33.517Z,99137.97
2022-10-11T02:27:02.806Z,99138.63
2022-10-11T02:29:32.596Z,99139.94
2022-10-11T02:32:00.425Z,99138.91
2022-10-11T02:34:37.929Z,99135.28
2022-10-11T02:37:30.197Z,99134.25
2022-10-11T02:40:06.464Z,99139.81
2022-10-11T02:42:42.808Z,99133.13
2022-10-11T02:45:16.849Z,99127.38
2022-10-11T02:47:44.083Z,99123.84
2022-10-11T02:50:12.476Z,99125.88
2022-10-11T02:52:39.039Z,99134.78
2022-10-11T02:55:06.317Z,99137.97
2022-10-11T02:57:32.799Z,99132.09
2022-10-11T02:59:59.107Z,99135.94
2022-10-11T03:02:25.517Z,99127.72
2022-10-11T03:04:51.933Z,99128.28
2022-10-11T03:07:18.269Z,99127.28
2022-10-11T03:09:45.093Z,99121.88
2022-10-11T03:12:11.489Z,99129.97
2022-10-11T03:14:37.930Z,99133.69
2022-10-11T03:17:30.833Z,99134.69
2022-10-11T03:19:51.683Z,99137.81
2022-10-11T03:22:18.044Z,99142.53
2022-10-11T03:24:44.436Z,99141.72
2022-10-11T03:27:10.983Z,99137.75
2022-10-11T03:29:37.372Z,99147.22
2022-10-11T03:32:04.024Z,99153.59
2022-10-11T03:34:30.527Z,99143.03
2022-10-11T03:36:57.038Z,99142.97
2022-10-11T03:39:23.493Z,99149.38
2022-10-11T03:41:49.877Z,99143.53
2022-10-11T03:44:16.426Z,99146.22
2022-10-11T03:46:42.720Z,99142.66
2022-10-11T03:49:09.164Z,99148.97
2022-10-11T03:51:36.393Z,99149.13
2022-10-11T03:54:02.812Z,99149.88
2022-10-11T03:56:29.216Z,99153.91
2022-10-11T03:58:55.863Z,99145.19
2022-10-11T04:01:22.411Z,99154.94
2022-10-11T04:03:48.955Z,99145.03
2022-10-11T04:06:15.598Z,99161.38
2022-10-11T04:08:42.062Z,99148.28
2022-10-11T04:11:08.583Z,99158.38
2022-10-11T04:13:34.915Z,99146.97
2022-10-11T04:16:01.556Z,99147.00
2022-10-11T04:18:28.199Z,99153.59
2022-10-11T04:20:54.622Z,99152.41
2022-10-11T04:23:21.024Z,99153.44
2022-10-11T04:25:48.263Z,99153.66
2022-10-11T04:28:14.819Z,99155.88
2022-10-11T04:30:41.322Z,99151.16
2022-10-11T04:33:07.761Z,99145.97
2022-10-11T04:35:34.235Z,99158.41
2022-10-11T04:38:00.670Z,99161.09
2022-10-11T04:40:27.091Z,99167.13
2022-10-11T04:42:53.747Z,99154.38
2022-10-11T04:45:20.836Z,99155.25
2022-10-11T04:47:48.352Z,99158.28
2022-10-11T04:50:15.422Z,99158.28
2022-10-11T04:52:42.626Z,99169.72
2022-10-11T04:55:09.732Z,99160.31
2022-10-11T04:57:36.658Z,99170.41
2022-10-11T05:00:04.668Z,99176.78
2022-10-11T05:02:31.270Z,99167.41
2022-10-11T05:04:57.825Z,99177.97
2022-10-11T05:07:24.281Z,99172.44
2022-10-11T05:09:50.670Z,99180.31
2022-10-11T05:12:17.016Z,99176.28
2022-10-11T05:14:43.552Z,99174.47
2022-10-11T05:17:09.913Z,99176.66
2022-10-11T05:19:36.285Z,99174.16
2022-10-11T05:22:02.702Z,99174.47
2022-10-11T05:24:29.157Z,99173.16
2022-10-11T05:26:58.647Z,99180.19
2022-10-11T05:29:27.401Z,99180.88
2022-10-11T05:31:54.005Z,99190.28
2022-10-11T05:34:20.375Z,99186.25
2022-10-11T05:36:46.753Z,99196.47
2022-10-11T05:39:13.388Z,99198.47
2022-10-11T05:41:39.789Z,99204.38
2022-10-11T05:44:08.317Z,99201.69
2022-10-11T05:46:34.733Z,99196.97
2022-10-11T05:49:01.126Z,99208.06
2022-10-11T05:51:27.513Z,99214.44
2022-10-11T05:53:53.980Z,99207.03
2022-10-11T05:56:23.015Z,99220.81
2022-10-11T05:58:50.182Z,99223.63
2022-10-11T06:01:27.374Z,99224.31
2022-10-11T06:03:54.061Z,99223.81
2022-10-11T06:06:20.552Z,99230.16
2022-10-11T06:08:47.979Z,99230.50
2022-10-11T06:11:20.582Z,99230.81
2022-10-11T06:13:47.501Z,99226.94
2022-10-11T06:16:14.680Z,99230.78
2022-10-11T06:18:41.201Z,99233.97
2022-10-11T06:21:07.958Z,99231.41
2022-10-11T06:23:34.414Z,99228.38
2022-10-11T06:26:05.868Z,99237.94
2022-10-11T06:28:33.385Z,99229.16
2022-10-11T06:31:00.254Z,99233.19
2022-10-11T06:33:27.243Z,99238.88
2022-10-11T06:36:06.383Z,99236.50
2022-10-11T06:38:33.140Z,99240.66
2022-10-11T06:41:08.901Z,99247.69
2022-10-11T06:43:35.368Z,99250.72
2022-10-11T06:46:02.146Z,99260.78
2022-10-11T06:48:29.261Z,99257.06
2022-10-11T06:51:00.925Z,99261.59
2022-10-11T06:53:28.084Z,99250.63
2022-10-11T06:55:54.584Z,99261.34
2022-10-11T06:58:22.030Z,99259.97
2022-10-11T07:00:48.518Z,99258.13
2022-10-11T07:03:14.858Z,99272.00
2022-10-11T07:05:41.260Z,99263.22
2022-10-11T07:08:07.758Z,99254.28
2022-10-11T07:10:35.562Z,99259.44
2022-10-11T07:13:02.015Z,99258.06
2022-10-11T07:15:28.434Z,99263.94
2022-10-11T07:17:54.834Z,99262.69
2022-10-11T07:20:21.225Z,99273.56
2022-10-11T07:22:48.086Z,99270.13
2022-10-11T07:25:14.508Z,99265.41
2022-10-11T07:27:40.836Z,99272.41
2022-10-11T07:30:07.888Z,99267.31
2022-10-11T07:32:34.320Z,99268.72
2022-10-11T07:35:03.446Z,99277.75
2022-10-11T07:37:30.169Z,99268.16
2022-10-11T07:39:56.588Z,99269.47
2022-10-11T07:42:23.043Z,99265.03
2022-10-11T07:44:49.533Z,99272.41
2022-10-11T07:47:15.859Z,99271.09
2022-10-11T07:49:42.258Z,99265.50
2022-10-11T07:52:08.790Z,99264.13
2022-10-11T07:54:35.280Z,99265.03
2022-10-11T07:57:01.864Z,99270.81
2022-10-11T07:59:28.284Z,99263.69
2022-10-11T08:01:54.741Z,99269.38
2022-10-11T08:04:21.433Z,99265.53
2022-10-11T08:06:52.539Z,99281.41
2022-10-11T08:09:19.814Z,99276.22
2022-10-11T08:11:46.272Z,99279.22
2022-10-11T08:14:12.576Z,99281.31
2022-10-11T08:16:39.388Z,99274.03
2022-10-11T08:19:06.937Z,99276.44
2022-10-11T08:21:33.801Z,99281.47
2022-10-11T08:24:02.181Z,99280.84
2022-10-11T08:26:28.561Z,99279.94
2022-10-11T08:28:55.277Z,99281.50
2022-10-11T08:31:21.870Z,99290.53
2022-10-11T08:33:48.576Z,99289.09
2022-10-11T08:36:14.897Z,99288.91
2022-10-11T08:38:42.314Z,99284.53
2022-10-11T08:41:24.057Z,99291.59
2022-10-11T08:44:09.069Z,99287.75
2022-10-11T08:46:37.914Z,99291.41
2022-10-11T08:49:06.724Z,99291.91
2022-10-11T08:51:50.637Z,99291.22
2022-10-11T08:54:46.854Z,99288.41
2022-10-11T08:57:19.968Z,99292.94
2022-10-11T08:59:49.341Z,99295.41
2022-10-11T09:03:08.609Z,99289.09
2022-10-11T09:05:39.455Z,99300.19
2022-10-11T09:08:19.352Z,99289.06
2022-10-11T09:11:33.996Z,99291.16
2022-10-11T09:14:46.717Z,99288.75
2022-10-11T09:17:37.663Z,99300.28
2022-10-11T09:20:24.461Z,99300.97
2022-10-11T09:23:10.976Z,99297.59
2022-10-11T09:25:53.095Z,99294.00
2022-10-11T09:29:01.866Z,99305.38
2022-10-11T09:31:29.631Z,99291.47
2022-10-11T09:33:58.912Z,99293.38
2022-10-11T09:36:44.583Z,99293.38
2022-10-11T09:39:37.096Z,99290.06
2022-10-11T09:42:07.671Z,99287.81
2022-10-11T09:44:38.610Z,99289.06
2022-10-11T09:47:06.660Z,99295.78
2022-10-11T09:49:40.691Z,99290.72
2022-10-11T09:52:15.163Z,99295.78
2022-10-11T09:54:45.192Z,99283.13
2022-10-11T09:57:23.035Z,99309.34
2022-10-11T10:00:20.246Z,99298.88
2022-10-11T10:02:58.354Z,99303.47
2022-10-11T10:05:33.737Z,99302.25
2022-10-11T10:08:09.502Z,99306.59
2022-10-11T10:10:40.868Z,99303.41
2022-10-11T10:13:22.480Z,99301.38
2022-10-11T10:15:53.446Z,99297.25
2022-10-11T10:18:29.146Z,99304.34
2022-10-11T10:20:59.503Z,99303.88
2022-10-11T10:23:32.646Z,99310.75
2022-10-11T10:26:18.433Z,99306.66
2022-10-11T10:29:09.328Z,99306.66
2022-10-11T10:32:13.004Z,99301.81
2022-10-11T10:34:39.817Z,99301.50
2022-10-11T10:37:25.232Z,99298.53
2022-10-11T10:40:10.457Z,99298.34
2022-10-11T10:42:37.212Z,99303.91
2022-10-11T10:45:11.190Z,99300.75
2022-10-11T10:47:49.806Z,99307.75
2022-10-11T10:50:45.884Z,99310.19
2022-10-11T10:53:37.120Z,99307.50
2022-10-11T10:56:12.697Z,99303.56
2022-10-11T10:58:57.333Z,99300.56
2022-10-11T11:01:27.553Z,99297.81
2022-10-11T11:04:09.392Z,99299.97
2022-10-11T11:06:44.845Z,99282.88
2022-10-11T11:09:22.444Z,99287.59
2022-10-11T11:11:57.913Z,99294.38
2022-10-11T11:15:03.172Z,99293.50
2022-10-11T11:17:51.067Z,99291.16
2022-10-11T11:20:58.164Z,99292.00
2022-10-11T11:23:40.561Z,99284.34
2022-10-11T11:26:10.224Z,99286.44
2022-10-11T11:29:17.330Z,99279.19
2022-10-11T11:31:56.126Z,99285.50
2022-10-11T11:34:38.268Z,99284.78
2022-10-11T11:37:21.514Z,99276.97
2022-10-11T11:39:54.040Z,99276.06
2022-10-11T11:42:30.937Z,99271.91
2022-10-11T11:45:05.413Z,99277.91
2022-10-11T11:47:42.373Z,99268.28
2022-10-11T11:50:08.998Z,99266.75
2022-10-11T11:52:45.794Z,99274.97
2022-10-11T11:55:30.405Z,99266.22
2022-10-11T11:58:18.606Z,99270.59
2022-10-11T12:01:15.556Z,99264.31
2022-10-11T12:03:47.737Z,99268.03
2022-10-11T12:06:14.476Z,99267.16
2022-10-11T12:08:43.433Z,99265.72
2022-10-11T12:11:22.446Z,99259.00
2022-10-11T12:13:51.141Z,99266.56
2022-10-11T12:16:18.141Z,99266.56
2022-10-11T12:18:53.977Z,99263.84
2022-10-11T12:21:38.711Z,99266.72
2022-10-11T12:24:20.377Z,99266.00
2022-10-11T12:26:55.217Z,99263.44
2022-10-11T12:29:43.520Z,99260.63
2022-10-11T12:32:28.415Z,99258.50
2022-10-11T12:35:32.399Z,99249.91
2022-10-11T12:38:16.840Z,99257.94
2022-10-11T12:40:47.075Z,99256.53
2022-10-11T12:43:16.511Z,99257.91
2022-10-11T12:45:47.858Z,99242.50
2022-10-11T12:49:07.307Z,99249.75
2022-10-11T12:51:42.137Z,99248.81
2022-10-11T12:54:37.395Z,99241.56
2022-10-11T12:57:47.377Z,99240.09
2022-10-11T13:00:29.579Z,99248.25
2022-10-11T13:03:06.229Z,99246.38
2022-10-11T13:05:43.216Z,99240.19
2022-10-11T13:08:18.681Z,99240.56
2022-10-11T13:10:47.191Z,99241.38
2022-10-11T13:13:22.838Z,99250.63
2022-10-11T13:15:52.240Z,99247.22
2022-10-11T13:18:22.649Z,99251.69
2022-10-11T13:20:49.442Z,99245.59
2022-10-11T13:23:25.021Z,99249.56
2022-10-11T13:25:53.519Z,99251.88
2022-10-11T13:28:21.712Z,99247.59
2022-10-11T13:30:52.320Z,99243.06
2022-10-11T13:33:40.777Z,99234.09
2022-10-11T13:36:14.957Z,99230.31
2022-10-11T13:38:41.501Z,99242.81
2022-10-11T13:41:09.413Z,99236.81
2022-10-11T13:43:37.713Z,99240.34
2022-10-11T13:46:05.185Z,99236.78
2022-10-11T13:48:41.850Z,99248.19
2022-10-11T13:51:28.969Z,99233.19
2022-10-11T13:54:05.003Z,99247.44
2022-10-11T13:56:42.189Z,99242.06
2022-10-11T13:59:18.490Z,99233.50
2022-10-11T14:01:46.667Z,99238.91
2022-10-11T14:04:27.279Z,99238.69
2022-10-11T14:06:59.601Z,99237.66
2022-10-11T14:09:33.880Z,99238.13
2022-10-11T14:12:40.429Z,99247.09
2022-10-11T14:15:24.484Z,99240.41
2022-10-11T14:17:51.445Z,99238.06
2022-10-11T14:20:24.182Z,99225.56
2022-10-11T14:22:53.356Z,99240.56
2022-10-11T14:25:22.831Z,99235.97
2022-10-11T14:27:49.796Z,99230.56
2022-10-11T14:30:27.671Z,99231.81
2022-10-11T14:32:57.679Z,99235.63
2022-10-11T14:35:32.197Z,99238.03
2022-10-11T14:38:01.640Z,99242.03
2022-10-11T14:40:30.824Z,99240.53
2022-10-11T14:42:57.399Z,99234.06
2022-10-11T14:45:24.515Z,99235.31
2022-10-11T14:47:51.769Z,99230.72
2022-10-11T14:50:26.629Z,99234.69
2022-10-11T14:52:53.680Z,99235.09
2022-10-11T14:55:21.769Z,99230.06
2022-10-11T14:57:48.303Z,99230.34
2022-10-11T15:00:22.467Z,99235.34
2022-10-11T15:02:50.845Z,99234.28
2022-10-11T15:05:17.261Z,99231.38
2022-10-11T15:07:44.144Z,99228.81
2022-10-11T15:10:23.684Z,99223.41
2022-10-11T15:12:51.972Z,99231.94
2022-10-11T15:15:21.150Z,99225.72
2022-10-11T15:17:53.742Z,99225.56
2022-10-11T15:20:31.517Z,99227.31
2022-10-11T15:23:00.344Z,99226.03
2022-10-11T15:25:28.901Z,99226.28
2022-10-11T15:27:56.045Z,99227.94
2022-10-11T15:30:26.547Z,99218.56
2022-10-11T15:32:54.070Z,99215.47
2022-10-11T15:35:22.823Z,99208.19
2022-10-11T15:37:53.006Z,99211.47
2022-10-11T15:40:26.682Z,99212.28
2022-10-11T15:42:54.500Z,99215.47
2022-10-11T15:45:22.687Z,99218.16
2022-10-11T15:47:50.275Z,99217.94
2022-10-11T15:50:24.080Z,99206.00
2022-10-11T15:52:51.693Z,99206.59
2022-10-11T15:55:18.708Z,99207.88
2022-10-11T15:57:45.298Z,99206.63
2022-10-11T16:00:13.005Z,99207.28
2022-10-11T16:02:39.577Z,99212.84
2022-10-11T16:05:06.191Z,99204.81
2022-10-11T16:07:32.991Z,99213.59
2022-10-11T16:09:59.466Z,99205.66
2022-10-11T16:12:25.898Z,99209.47
2022-10-11T16:14:52.347Z,99207.41
2022-10-11T16:17:19.142Z,99206.38
2022-10-11T16:19:45.572Z,99200.03
2022-10-11T16:22:12.116Z,99202.91
2022-10-11T16:24:38.853Z,99199.19
2022-10-11T16:27:05.326Z,99195.97
2022-10-11T16:29:31.663Z,99204.34
2022-10-11T16:31:58.274Z,99203.88
2022-10-11T16:34:24.680Z,99201.13
2022-10-11T16:36:51.111Z,99208.59
2022-10-11T16:39:18.495Z,99210.63
2022-10-11T16:41:46.109Z,99212.50
2022-10-11T16:44:14.569Z,99209.16
2022-10-11T16:46:41.828Z,99205.41
2022-10-11T16:49:08.372Z,99200.59
2022-10-11T16:51:34.843Z,99213.63
2022-10-11T16:54:01.510Z,99206.91
2022-10-11T16:56:29.161Z,99210.44
2022-10-11T16:58:55.873Z,99222.38
2022-10-11T17:01:23.240Z,99211.97
2022-10-11T17:03:51.228Z,99214.19
2022-10-11T17:06:19.371Z,99210.31
2022-10-11T17:08:46.253Z,99211.72
2022-10-11T17:11:13.049Z,99219.19
2022-10-11T17:13:39.626Z,99223.38
2022-10-11T17:16:06.477Z,99226.66
2022-10-11T17:18:33.198Z,99222.69
2022-10-11T17:21:10.743Z,99223.63
2022-10-11T17:23:38.033Z,99222.03
2022-10-11T17:26:11.381Z,99225.75
2022-10-11T17:28:38.967Z,99223.25
2022-10-11T17:31:07.912Z,99231.53
2022-10-11T17:33:34.866Z,99227.72
2022-10-11T17:36:02.047Z,99238.22
2022-10-11T17:38:28.631Z,99236.38
2022-10-11T17:40:58.837Z,99229.03
2022-10-11T17:43:25.285Z,99225.47
2022-10-11T17:45:56.228Z,99230.03
2022-10-11T17:48:22.706Z,99227.88
2022-10-11T17:50:50.745Z,99235.53
2022-10-11T17:53:17.868Z,99243.47
2022-10-11T17:55:45.764Z,99242.81
2022-10-11T17:58:12.760Z,99238.09
2022-10-11T18:00:40.004Z,99236.97
2022-10-11T18:03:07.197Z,99234.16
2022-10-11T18:05:37.961Z,99236.19
2022-10-11T18:08:04.673Z,99238.59
2022-10-11T18:10:33.634Z,99233.88
2022-10-11T18:13:04.340Z,99229.19
2022-10-11T18:15:33.183Z,99228.69
2022-10-11T18:17:59.814Z,99233.03
2022-10-11T18:20:26.961Z,99233.78
2022-10-11T18:22:54.163Z,99232.25
2022-10-11T18:25:20.908Z,99229.03
2022-10-11T18:27:47.717Z,99232.09
2022-10-11T18:30:14.601Z,99226.34
2022-10-11T18:32:41.229Z,99227.00
2022-10-11T18:35:08.234Z,99218.56
2022-10-11T18:37:34.830Z,99220.88
2022-10-11T18:40:01.405Z,99220.69
2022-10-11T18:42:27.976Z,99221.25
2022-10-11T18:44:55.247Z,99220.16
2022-10-11T18:47:21.772Z,99227.94
2022-10-11T18:49:48.309Z,99221.06
2022-10-11T18:52:14.906Z,99230.81
2022-10-11T18:54:41.444Z,99231.00
2022-10-11T18:57:08.035Z,99229.63
2022-10-11T18:59:34.803Z,99228.91
2022-10-11T19:02:01.384Z,99228.91
2022-10-11T19:04:28.755Z,99228.81
2022-10-11T19:06:55.385Z,99226.72
2022-10-11T19:09:24.364Z,99226.50
2022-10-11T19:11:54.416Z,99230.06
2022-10-11T19:14:25.733Z,99227.38
2022-10-11T19:16:53.108Z,99230.72
2022-10-11T19:19:22.615Z,99226.16
2022-10-11T19:21:49.645Z,99224.66
2022-10-11T19:24:21.957Z,99224.09
2022-10-11T19:26:51.565Z,99226.06
2022-10-11T19:29:21.116Z,99231.94
2022-10-11T19:31:54.625Z,99229.91
2022-10-11T19:34:22.236Z,99229.13
2022-10-11T19:36:53.380Z,99224.88
2022-10-11T19:39:23.095Z,99232.13
2022-10-11T19:41:50.172Z,99233.69
2022-10-11T19:44:17.088Z,99225.78
2022-10-11T19:46:51.666Z,99230.00
2022-10-11T19:49:22.820Z,99230.00
2022-10-11T19:51:50.548Z,99230.00
2022-10-11T19:54:18.349Z,99224.59
2022-10-11T19:56:45.362Z,99230.00
2022-10-11T19:59:12.999Z,99230.81
2022-10-11T20:01:41.449Z,99233.56
2022-10-11T20:04:27.530Z,99234.94
2022-10-11T20:06:58.967Z,99227.53
2022-10-11T20:09:30.292Z,99235.38
2022-10-11T20:11:57.397Z,99236.69
2022-10-11T20:14:24.239Z,99242.44
2022-10-11T20:16:51.450Z,99247.41
2022-10-11T20:19:18.766Z,99236.50
2022-10-11T20:21:45.483Z,99247.81
2022-10-11T20:24:12.055Z,99248.06
2022-10-11T20:26:39.386Z,99252.25
2022-10-11T20:29:06.529Z,99252.78
2022-10-11T20:31:40.791Z,99246.38
2022-10-11T20:34:07.955Z,99242.97
2022-10-11T20:36:36.007Z,99247.34
2022-10-11T20:39:04.986Z,99254.25
2022-10-11T20:41:40.023Z,99242.44
2022-10-11T20:44:08.937Z,99250.22
2022-10-11T20:46:38.110Z,99252.13
2022-10-11T20:49:07.852Z,99253.06
2022-10-11T20:51:36.840Z,99251.53
2022-10-11T20:54:04.948Z,99254.31
2022-10-11T20:56:31.532Z,99247.59
2022-10-11T20:58:58.747Z,99248.50
2022-10-11T21:01:28.486Z,99247.00
2022-10-11T21:03:57.824Z,99244.59
2022-10-11T21:06:24.641Z,99250.28
2022-10-11T21:08:51.075Z,99246.75
2022-10-11T21:11:17.462Z,99258.91
2022-10-11T21:13:43.997Z,99256.56
2022-10-11T21:16:14.502Z,99253.56
2022-10-11T21:18:41.573Z,99253.22
2022-10-11T21:21:10.765Z,99253.81
2022-10-11T21:23:37.559Z,99265.47
2022-10-11T21:26:08.198Z,99259.09
2022-10-11T21:28:35.217Z,99262.16
2022-10-11T21:31:12.811Z,99259.91
2022-10-11T21:33:40.587Z,99263.16
2022-10-11T21:36:09.689Z,99264.41
2022-10-11T21:38:37.102Z,99258.34
2022-10-11T21:41:05.757Z,99257.53
2022-10-11T21:43:35.053Z,99261.94
2022-10-11T21:46:13.827Z,99256.00
2022-10-11T21:48:40.828Z,99253.31
2022-10-11T21:53:45.802Z,99261.44
2022-10-11T21:56:12.226Z,99259.09
2022-10-11T21:58:38.629Z,99253.91
2022-10-11T22:01:05.905Z,99253.06
2022-10-11T22:03:32.414Z,99249.34
2022-10-11T22:06:01.999Z,99256.69
2022-10-11T22:08:28.506Z,99258.75
2022-10-11T22:10:57.503Z,99261.13
2022-10-11T22:13:25.268Z,99260.78
2022-10-11T22:15:51.842Z,99256.41
2022-10-11T22:18:18.487Z,99263.66
2022-10-11T22:20:45.343Z,99256.59
2022-10-11T22:23:11.933Z,99255.25
2022-10-11T22:25:39.048Z,99259.13
2022-10-11T22:28:06.746Z,99252.66
2022-10-11T22:30:34.025Z,99255.03
2022-10-11T22:33:00.746Z,99254.25
2022-10-11T22:35:27.334Z,99256.97
2022-10-11T22:37:53.678Z,99250.88
2022-10-11T22:40:20.423Z,99247.06
2022-10-11T22:42:46.861Z,99248.06
2022-10-11T22:45:13.333Z,99250.81
2022-10-11T22:47:39.631Z,99255.72
2022-10-11T22:50:06.352Z,99243.09
2022-10-11T22:52:32.752Z,99252.00
2022-10-11T22:54:59.138Z,99258.50
2022-10-11T22:57:25.568Z,99254.50
2022-10-11T22:59:51.939Z,99251.22
2022-10-11T23:02:18.351Z,99245.41
2022-10-11T23:04:45.053Z,99248.44
2022-10-11T23:07:11.456Z,99244.72
2022-10-11T23:09:38.010Z,99249.09
2022-10-11T23:12:04.499Z,99250.56
2022-10-11T23:14:30.887Z,99246.41
2022-10-11T23:16:57.289Z,99246.06
2022-10-11T23:19:23.685Z,99250.81
2022-10-11T23:21:50.109Z,99246.44
2022-10-11T23:24:16.780Z,99253.38
2022-10-11T23:26:43.290Z,99252.16
2022-10-11T23:29:09.681Z,99248.81
2022-10-11T23:31:36.130Z,99249.81
2022-10-11T23:34:02.525Z,99251.53
2022-10-11T23:36:29.065Z,99243.13
2022-10-11T23:38:57.703Z,99251.84
2022-10-11T23:41:26.309Z,99250.16
2022-10-11T23:43:53.204Z,99246.47
2022-10-11T23:46:20.073Z,99235.28
2022-10-11T23:48:46.896Z,99243.16
2022-10-11T23:51:13.487Z,99243.13
2022-10-11T23:53:40.040Z,99244.44
2022-10-11T23:56:07.605Z,99244.78
2022-10-11T23:58:34.060Z,99233.88
